Time;durP1;ratioP1;P1;durP2;ratioP2;P2;SDS_P1;SDS_P2;PMS_P1;PMS_P2;Temp;Humidity;BMP_temperature;BMP_pressure;BME280_temperature;BME280_humidity;BME280_pressure;Samples;Min_cycle;Max_cycle;Signal;HPM_P1;HPM_P2
2023/06/17 00:02:15;;;;;;;1.80;1.70;;;;;;;;;;5037754;28;58563;-67
2023/06/17 00:04:40;;;;;;;1.70;1.60;;;;;;;;;;5037771;28;59378;-68
2023/06/17 00:07:05;;;;;;;2.85;1.88;;;;;;;;;;5048845;28;59054;-68
2023/06/17 00:09:31;;;;;;;2.43;1.67;;;;;;;;;;5041238;28;58751;-66
2023/06/17 00:12:02;;;;;;;1.60;1.50;;;;;;;;;;5039511;28;58679;-68
2023/06/17 00:14:27;;;;;;;2.58;1.52;;;;;;;;;;5041116;28;58453;-68
2023/06/17 00:16:53;;;;;;;1.42;1.33;;;;;;;;;;5039435;28;59064;-67
2023/06/17 00:19:20;;;;;;;2.83;1.70;;;;;;;;;;5038581;28;58910;-68
2023/06/17 00:21:50;;;;;;;1.70;1.60;;;;;;;;;;5038171;28;58345;-67
2023/06/17 00:24:19;;;;;;;1.88;1.48;;;;;;;;;;5036961;28;59525;-65
2023/06/17 00:26:44;;;;;;;2.30;1.55;;;;;;;;;;5042802;28;58470;-67
2023/06/17 00:29:09;;;;;;;1.53;1.43;;;;;;;;;;5038922;28;58381;-67
2023/06/17 00:31:34;;;;;;;1.52;1.35;;;;;;;;;;5038430;28;59311;-66
2023/06/17 00:34:00;;;;;;;1.10;1.10;;;;;;;;;;5037054;28;58404;-68
2023/06/17 00:36:25;;;;;;;1.60;1.50;;;;;;;;;;5036800;28;58654;-64
2023/06/17 00:38:50;;;;;;;1.65;1.55;;;;;;;;;;5037140;28;60029;-66
2023/06/17 00:41:16;;;;;;;1.87;1.77;;;;;;;;;;5039067;28;58468;-68
2023/06/17 00:43:41;;;;;;;1.50;1.40;;;;;;;;;;5036849;28;59332;-65
2023/06/17 00:46:07;;;;;;;1.50;1.40;;;;;;;;;;5037595;28;58776;-64
2023/06/17 00:48:32;;;;;;;1.35;1.25;;;;;;;;;;5036467;28;59025;-68
2023/06/17 00:51:01;;;;;;;2.07;1.87;;;;;;;;;;5037008;28;58857;-65
2023/06/17 00:53:27;;;;;;;1.75;1.65;;;;;;;;;;5034622;28;58563;-63
2023/06/17 00:55:52;;;;;;;1.50;1.40;;;;;;;;;;5038876;28;58649;-68
2023/06/17 00:58:18;;;;;;;1.73;1.63;;;;;;;;;;5039532;28;58526;-68
2023/06/17 01:00:43;;;;;;;1.65;1.55;;;;;;;;;;5043058;28;58830;-68
2023/06/17 01:03:09;;;;;;;1.55;1.45;;;;;;;;;;5038505;28;58045;-67
2023/06/17 01:05:34;;;;;;;1.60;1.50;;;;;;;;;;5042766;28;58343;-68
2023/06/17 01:08:02;;;;;;;1.98;1.85;;;;;;;;;;5039836;28;58749;-68
2023/06/17 01:10:40;;;;;;;1.20;1.20;;;;;;;;;;5028642;28;58872;-68
2023/06/17 01:13:05;;;;;;;2.00;1.90;;;;;;;;;;5038563;28;58769;-68
2023/06/17 01:15:33;;;;;;;1.40;1.30;;;;;;;;;;5019328;28;58633;-65
2023/06/17 01:17:58;;;;;;;1.60;1.50;;;;;;;;;;5024270;28;59498;-69
2023/06/17 01:20:26;;;;;;;1.93;1.83;;;;;;;;;;5027062;28;58093;-68
2023/06/17 01:22:52;;;;;;;2.00;1.90;;;;;;;;;;5024971;28;58685;-67
2023/06/17 01:25:18;;;;;;;1.40;1.30;;;;;;;;;;5025487;28;58001;-68
2023/06/17 01:27:43;;;;;;;1.50;1.40;;;;;;;;;;5032358;28;58491;-67
2023/06/17 01:30:09;;;;;;;1.42;1.33;;;;;;;;;;5042778;28;58449;-64
2023/06/17 01:32:34;;;;;;;2.13;2.03;;;;;;;;;;5040570;28;58464;-67
2023/06/17 01:35:00;;;;;;;1.70;1.60;;;;;;;;;;5041597;28;58691;-68
2023/06/17 01:37:28;;;;;;;1.63;1.52;;;;;;;;;;5043288;28;58557;-65
2023/06/17 01:39:56;;;;;;;1.83;1.73;;;;;;;;;;5041845;28;59188;-68
2023/06/17 01:42:25;;;;;;;1.60;1.50;;;;;;;;;;5043349;28;57925;-63
2023/06/17 01:44:52;;;;;;;1.90;1.77;;;;;;;;;;5046261;28;58638;-68
2023/06/17 01:47:17;;;;;;;1.77;1.67;;;;;;;;;;5046497;28;58472;-65
2023/06/17 01:49:42;;;;;;;2.00;1.40;;;;;;;;;;5042372;28;58909;-65
2023/06/17 01:52:09;;;;;;;2.20;2.00;;;;;;;;;;5044640;28;59377;-68
2023/06/17 01:54:34;;;;;;;1.98;1.70;;;;;;;;;;5042183;28;58850;-66
2023/06/17 01:57:00;;;;;;;1.55;1.45;;;;;;;;;;5043138;28;58442;-68
2023/06/17 01:59:25;;;;;;;1.58;1.48;;;;;;;;;;5044456;28;58474;-68
2023/06/17 02:01:51;;;;;;;1.53;1.43;;;;;;;;;;5043385;28;58801;-64
2023/06/17 02:04:16;;;;;;;2.58;1.77;;;;;;;;;;5041824;28;59947;-67
2023/06/17 02:06:41;;;;;;;2.83;1.90;;;;;;;;;;5044462;28;59984;-64
2023/06/17 02:09:06;;;;;;;1.52;1.42;;;;;;;;;;5043782;28;58792;-68
2023/06/17 02:11:32;;;;;;;1.83;1.73;;;;;;;;;;5041817;28;59480;-65
2023/06/17 02:13:57;;;;;;;1.90;1.80;;;;;;;;;;5042947;28;58975;-68
2023/06/17 02:16:23;;;;;;;1.60;1.50;;;;;;;;;;5044221;28;58705;-68
2023/06/17 02:18:52;;;;;;;1.65;1.55;;;;;;;;;;5043726;28;58427;-68
2023/06/17 02:21:17;;;;;;;1.38;1.27;;;;;;;;;;5044905;28;59019;-68
2023/06/17 02:23:45;;;;;;;1.77;1.67;;;;;;;;;;5043585;28;58368;-67
2023/06/17 02:26:10;;;;;;;1.45;1.35;;;;;;;;;;5044761;28;58381;-67
2023/06/17 02:28:36;;;;;;;1.67;1.57;;;;;;;;;;5042366;28;59021;-63
2023/06/17 02:31:01;;;;;;;1.35;1.25;;;;;;;;;;5039249;28;58667;-68
2023/06/17 02:33:26;;;;;;;1.35;1.30;;;;;;;;;;5044281;28;58749;-67
2023/06/17 02:35:51;;;;;;;1.83;1.73;;;;;;;;;;5042676;28;58756;-65
2023/06/17 02:38:17;;;;;;;1.40;1.30;;;;;;;;;;5045096;28;58553;-68
2023/06/17 02:40:42;;;;;;;2.10;1.90;;;;;;;;;;5044906;28;58816;-68
2023/06/17 02:43:07;;;;;;;1.77;1.67;;;;;;;;;;5043303;28;58362;-69
2023/06/17 02:45:32;;;;;;;1.95;1.85;;;;;;;;;;5042664;28;58392;-67
2023/06/17 02:47:57;;;;;;;1.30;1.20;;;;;;;;;;5044492;28;59098;-68
2023/06/17 02:50:23;;;;;;;1.73;1.63;;;;;;;;;;5043334;28;58759;-68
2023/06/17 02:52:51;;;;;;;1.73;1.63;;;;;;;;;;5043068;28;58743;-68
2023/06/17 02:55:16;;;;;;;1.58;1.48;;;;;;;;;;5041026;28;58402;-68
2023/06/17 02:57:41;;;;;;;1.75;1.65;;;;;;;;;;5043450;28;58517;-68
2023/06/17 03:00:08;;;;;;;1.52;1.42;;;;;;;;;;5043904;28;58379;-66
2023/06/17 03:02:33;;;;;;;1.73;1.63;;;;;;;;;;5041969;28;59498;-67
2023/06/17 03:04:59;;;;;;;1.65;1.55;;;;;;;;;;5042169;28;58522;-67
2023/06/17 03:07:24;;;;;;;2.83;1.60;;;;;;;;;;5043225;28;59785;-67
2023/06/17 03:09:49;;;;;;;1.52;1.42;;;;;;;;;;5043121;28;59304;-68
2023/06/17 03:12:14;;;;;;;1.70;1.60;;;;;;;;;;5043041;28;58294;-64
2023/06/17 03:14:40;;;;;;;1.85;1.75;;;;;;;;;;5042303;28;58431;-67
2023/06/17 03:17:06;;;;;;;1.97;1.87;;;;;;;;;;5042175;28;58764;-64
2023/06/17 03:19:31;;;;;;;1.40;1.30;;;;;;;;;;5042145;28;58417;-68
2023/06/17 03:21:56;;;;;;;1.50;1.30;;;;;;;;;;5043368;28;58687;-67
2023/06/17 03:24:21;;;;;;;1.58;1.48;;;;;;;;;;5041478;28;58748;-67
2023/06/17 03:26:46;;;;;;;1.60;1.50;;;;;;;;;;5042816;28;58736;-68
2023/06/17 03:29:11;;;;;;;1.85;1.75;;;;;;;;;;5043260;28;58550;-65
2023/06/17 03:31:36;;;;;;;1.98;1.88;;;;;;;;;;5044328;28;58448;-66
2023/06/17 03:34:02;;;;;;;1.57;1.47;;;;;;;;;;5041429;28;58690;-68
2023/06/17 03:36:30;;;;;;;1.93;1.83;;;;;;;;;;5042845;28;58624;-66
2023/06/17 03:38:55;;;;;;;;;;;;;;;;;;5041193;28;58469;-64
2023/06/17 03:41:20;;;;;;;1.90;1.77;;;;;;;;;;5043534;28;59380;-64
2023/06/17 03:43:45;;;;;;;1.60;1.50;;;;;;;;;;5041601;28;58421;-66
2023/06/17 03:46:10;;;;;;;1.57;1.47;;;;;;;;;;5042976;28;58854;-67
2023/06/17 03:48:36;;;;;;;1.53;1.43;;;;;;;;;;5040523;28;58775;-63
2023/06/17 03:51:02;;;;;;;1.53;1.43;;;;;;;;;;5043620;28;58437;-67
2023/06/17 03:53:27;;;;;;;1.80;1.70;;;;;;;;;;5041818;28;59029;-67
2023/06/17 03:55:52;;;;;;;2.05;1.95;;;;;;;;;;5043467;28;58676;-65
2023/06/17 03:58:17;;;;;;;1.93;1.83;;;;;;;;;;5044314;28;58758;-65
2023/06/17 04:00:42;;;;;;;2.13;2.03;;;;;;;;;;5041789;28;58451;-67
2023/06/17 04:03:08;;;;;;;2.00;1.80;;;;;;;;;;5041500;28;58775;-67
2023/06/17 04:05:33;;;;;;;2.30;2.10;;;;;;;;;;5044546;28;58653;-66
2023/06/17 04:07:59;;;;;;;1.67;1.58;;;;;;;;;;5043233;28;58371;-68
2023/06/17 04:10:25;;;;;;;1.77;1.67;;;;;;;;;;5040743;28;58793;-65
2023/06/17 04:12:50;;;;;;;1.75;1.65;;;;;;;;;;5042264;28;58764;-68
2023/06/17 04:15:15;;;;;;;1.67;1.58;;;;;;;;;;5041782;28;58737;-67
2023/06/17 04:17:40;;;;;;;1.70;1.60;;;;;;;;;;5043273;28;58400;-66
2023/06/17 04:20:10;;;;;;;1.93;1.83;;;;;;;;;;5040582;28;58719;-66
2023/06/17 04:22:37;;;;;;;2.28;1.98;;;;;;;;;;5040028;28;58428;-64
2023/06/17 04:25:02;;;;;;;1.52;1.42;;;;;;;;;;5041462;28;59158;-67
2023/06/17 04:27:27;;;;;;;1.87;1.77;;;;;;;;;;5040942;28;59685;-66
2023/06/17 04:29:56;;;;;;;1.75;1.65;;;;;;;;;;5041561;28;58435;-67
2023/06/17 04:32:21;;;;;;;1.90;1.80;;;;;;;;;;5047397;28;59926;-67
2023/06/17 04:34:47;;;;;;;1.98;1.88;;;;;;;;;;5044510;28;58748;-65
2023/06/17 04:37:14;;;;;;;2.10;2.00;;;;;;;;;;5043441;28;58696;-63
2023/06/17 04:39:39;;;;;;;1.88;1.77;;;;;;;;;;5044530;28;58935;-66
2023/06/17 04:42:04;;;;;;;1.90;1.80;;;;;;;;;;5043534;28;58752;-65
2023/06/17 04:44:31;;;;;;;1.90;1.80;;;;;;;;;;5045498;28;59835;-68
2023/06/17 04:46:57;;;;;;;1.58;1.48;;;;;;;;;;5041821;28;58583;-67
2023/06/17 04:49:22;;;;;;;2.00;1.90;;;;;;;;;;5041084;28;58523;-67
2023/06/17 04:51:48;;;;;;;1.63;1.50;;;;;;;;;;5043612;28;58727;-67
2023/06/17 04:54:13;;;;;;;1.48;1.38;;;;;;;;;;5042140;28;58715;-67
2023/06/17 04:56:38;;;;;;;1.92;1.83;;;;;;;;;;5045780;28;58750;-67
2023/06/17 04:59:04;;;;;;;1.80;1.70;;;;;;;;;;5042705;28;58368;-67
2023/06/17 05:01:29;;;;;;;1.57;1.47;;;;;;;;;;5045120;28;58623;-64
2023/06/17 05:03:54;;;;;;;1.67;1.57;;;;;;;;;;5043684;28;59886;-62
2023/06/17 05:06:19;;;;;;;1.80;1.70;;;;;;;;;;5044477;28;59001;-66
2023/06/17 05:08:44;;;;;;;2.00;1.83;;;;;;;;;;5044906;28;58666;-67
2023/06/17 05:11:09;;;;;;;2.15;2.05;;;;;;;;;;5045819;28;58449;-67
2023/06/17 05:13:35;;;;;;;2.20;2.10;;;;;;;;;;5042515;28;58574;-65
2023/06/17 05:16:00;;;;;;;1.97;1.80;;;;;;;;;;5040604;28;58732;-67
2023/06/17 05:18:25;;;;;;;1.90;1.80;;;;;;;;;;5044005;28;58523;-66
2023/06/17 05:20:50;;;;;;;1.83;1.73;;;;;;;;;;5043268;28;59861;-64
2023/06/17 05:23:15;;;;;;;1.73;1.63;;;;;;;;;;5046661;28;58360;-68
2023/06/17 05:25:40;;;;;;;1.70;1.60;;;;;;;;;;5043800;28;58693;-66
2023/06/17 05:28:06;;;;;;;1.53;1.43;;;;;;;;;;5041427;28;58648;-68
2023/06/17 05:30:31;;;;;;;1.70;1.60;;;;;;;;;;5042455;28;58881;-66
2023/06/17 05:32:56;;;;;;;1.90;1.80;;;;;;;;;;5041587;28;58373;-66
2023/06/17 05:35:22;;;;;;;1.75;1.65;;;;;;;;;;5047599;28;58623;-68
2023/06/17 05:37:47;;;;;;;1.90;1.80;;;;;;;;;;5028135;28;58983;-67
2023/06/17 05:40:13;;;;;;;1.73;1.63;;;;;;;;;;5025949;28;58421;-68
2023/06/17 05:42:38;;;;;;;2.20;2.00;;;;;;;;;;5026683;28;58808;-67
2023/06/17 05:45:03;;;;;;;1.57;1.47;;;;;;;;;;5025707;28;59734;-67
2023/06/17 05:47:28;;;;;;;1.73;1.63;;;;;;;;;;5044831;28;58421;-67
2023/06/17 05:49:54;;;;;;;1.60;1.50;;;;;;;;;;5042616;28;58730;-68
2023/06/17 05:52:19;;;;;;;1.57;1.47;;;;;;;;;;5040491;28;58612;-67
2023/06/17 05:54:44;;;;;;;2.10;2.00;;;;;;;;;;5042587;28;58622;-67
2023/06/17 05:57:09;;;;;;;1.70;1.60;;;;;;;;;;5041856;28;59830;-67
2023/06/17 05:59:35;;;;;;;2.08;1.98;;;;;;;;;;5047347;28;58159;-67
2023/06/17 06:02:00;;;;;;;1.70;1.60;;;;;;;;;;5042916;28;58555;-67
2023/06/17 06:04:25;;;;;;;2.90;2.30;;;;;;;;;;5040440;28;60060;-66
2023/06/17 06:06:50;;;;;;;3.30;3.10;;;;;;;;;;5041323;28;58516;-67
2023/06/17 06:09:15;;;;;;;1.95;1.80;;;;;;;;;;5045326;28;59406;-67
2023/06/17 06:11:41;;;;;;;5.23;3.87;;;;;;;;;;5044954;28;58283;-66
2023/06/17 06:14:06;;;;;;;4.95;4.55;;;;;;;;;;5040619;28;58365;-67
2023/06/17 06:16:31;;;;;;;5.15;4.65;;;;;;;;;;5042106;28;58440;-66
2023/06/17 06:18:56;;;;;;;6.37;5.77;;;;;;;;;;5040712;28;59538;-68
2023/06/17 06:21:21;;;;;;;5.90;4.33;;;;;;;;;;5041794;28;58642;-67
2023/06/17 06:23:46;;;;;;;7.60;6.13;;;;;;;;;;5040557;28;58568;-66
2023/06/17 06:26:12;;;;;;;8.27;6.75;;;;;;;;;;5040879;28;60808;-67
2023/06/17 06:28:37;;;;;;;8.05;5.70;;;;;;;;;;5040951;28;58496;-65
2023/06/17 06:31:03;;;;;;;5.77;5.00;;;;;;;;;;5042330;28;59218;-68
2023/06/17 06:33:28;;;;;;;6.88;5.70;;;;;;;;;;5040088;28;58966;-63
2023/06/17 06:35:53;;;;;;;6.15;5.55;;;;;;;;;;5040097;28;58378;-67
2023/06/17 06:38:18;;;;;;;6.78;6.07;;;;;;;;;;5041966;28;59991;-66
2023/06/17 06:40:44;;;;;;;6.88;5.80;;;;;;;;;;5041127;28;58675;-67
2023/06/17 06:43:09;;;;;;;10.77;6.70;;;;;;;;;;5041441;28;58334;-67
2023/06/17 06:45:34;;;;;;;6.30;5.37;;;;;;;;;;5041182;28;58814;-68
2023/06/17 06:47:59;;;;;;;10.47;6.10;;;;;;;;;;5043595;28;58502;-66
2023/06/17 06:50:25;;;;;;;6.37;5.73;;;;;;;;;;5042641;28;58682;-67
2023/06/17 06:52:50;;;;;;;7.03;6.18;;;;;;;;;;5041351;28;58378;-67
2023/06/17 06:55:15;;;;;;;6.60;5.90;;;;;;;;;;5039377;28;58838;-66
2023/06/17 06:57:40;;;;;;;9.87;6.30;;;;;;;;;;5041394;28;59263;-68
2023/06/17 07:00:08;;;;;;;6.30;5.68;;;;;;;;;;5042129;28;58515;-67
2023/06/17 07:02:34;;;;;;;6.53;5.00;;;;;;;;;;5043862;28;59017;-65
2023/06/17 07:05:00;;;;;;;4.80;4.23;;;;;;;;;;5041565;28;58559;-67
2023/06/17 07:07:25;;;;;;;6.90;6.30;;;;;;;;;;5041419;28;58479;-67
2023/06/17 07:09:50;;;;;;;7.67;5.90;;;;;;;;;;5040022;28;58812;-67
2023/06/17 07:12:15;;;;;;;7.77;4.93;;;;;;;;;;5040268;28;58590;-63
2023/06/17 07:14:40;;;;;;;6.40;5.37;;;;;;;;;;5040712;28;59395;-67
2023/06/17 07:17:06;;;;;;;7.85;5.55;;;;;;;;;;5042499;28;58500;-67
2023/06/17 07:19:31;;;;;;;8.97;6.60;;;;;;;;;;5040543;28;59020;-67
2023/06/17 07:21:56;;;;;;;10.53;8.13;;;;;;;;;;5042860;28;58416;-67
2023/06/17 07:24:21;;;;;;;11.77;8.80;;;;;;;;;;5044181;28;58819;-67
2023/06/17 07:26:47;;;;;;;11.50;10.30;;;;;;;;;;5046425;28;58564;-67
2023/06/17 07:29:12;;;;;;;11.48;9.27;;;;;;;;;;5039673;28;58858;-67
2023/06/17 07:31:37;;;;;;;14.90;9.25;;;;;;;;;;5044955;28;58654;-65
2023/06/17 07:34:02;;;;;;;9.30;7.63;;;;;;;;;;5041717;28;58888;-67
2023/06/17 07:36:27;;;;;;;9.38;7.88;;;;;;;;;;5039572;28;58576;-67
2023/06/17 07:38:53;;;;;;;11.90;8.63;;;;;;;;;;5044420;28;58402;-67
2023/06/17 07:41:18;;;;;;;9.00;7.50;;;;;;;;;;5044007;28;58444;-67
2023/06/17 07:43:43;;;;;;;12.15;9.15;;;;;;;;;;5040101;28;58679;-67
2023/06/17 07:46:09;;;;;;;9.52;7.95;;;;;;;;;;5039953;28;58764;-67
2023/06/17 07:48:34;;;;;;;11.73;7.43;;;;;;;;;;5037981;28;58704;-62
2023/06/17 07:50:59;;;;;;;9.02;6.63;;;;;;;;;;5036267;28;58439;-65
2023/06/17 07:53:24;;;;;;;6.43;5.83;;;;;;;;;;5038584;28;58368;-67
2023/06/17 07:55:51;;;;;;;8.32;5.68;;;;;;;;;;5037863;28;58539;-67
2023/06/17 07:58:17;;;;;;;9.95;6.80;;;;;;;;;;5041341;28;58967;-68
2023/06/17 08:00:42;;;;;;;9.48;7.03;;;;;;;;;;5045295;28;58510;-67
2023/06/17 08:03:08;;;;;;;8.80;7.00;;;;;;;;;;5042074;28;58560;-67
2023/06/17 08:05:33;;;;;;;9.27;6.85;;;;;;;;;;5037930;28;58401;-67
2023/06/17 08:07:58;;;;;;;8.83;7.40;;;;;;;;;;5041011;28;59865;-67
2023/06/17 08:10:23;;;;;;;13.73;7.63;;;;;;;;;;5042068;28;58737;-67
2023/06/17 08:12:48;;;;;;;9.37;6.73;;;;;;;;;;5041662;28;58400;-68
2023/06/17 08:15:14;;;;;;;12.03;8.37;;;;;;;;;;5044341;28;58522;-67
2023/06/17 08:17:40;;;;;;;12.57;7.60;;;;;;;;;;5043559;28;58511;-66
2023/06/17 08:20:06;;;;;;;9.65;7.05;;;;;;;;;;5041607;28;59139;-67
2023/06/17 08:22:31;;;;;;;15.65;6.97;;;;;;;;;;5040542;28;59237;-67
2023/06/17 08:24:56;;;;;;;7.17;6.13;;;;;;;;;;5042717;28;58451;-67
2023/06/17 08:27:21;;;;;;;10.68;7.70;;;;;;;;;;5039454;28;59338;-67
2023/06/17 08:29:46;;;;;;;11.63;7.53;;;;;;;;;;5044630;28;58834;-67
2023/06/17 08:32:12;;;;;;;9.25;7.40;;;;;;;;;;5042315;28;58477;-68
2023/06/17 08:34:37;;;;;;;10.90;7.75;;;;;;;;;;5039242;28;59194;-62
2023/06/17 08:37:04;;;;;;;12.20;7.70;;;;;;;;;;5043393;28;58469;-67
2023/06/17 08:39:30;;;;;;;7.53;6.80;;;;;;;;;;5040838;28;59083;-67
2023/06/17 08:41:56;;;;;;;9.05;6.82;;;;;;;;;;5041642;28;59848;-67
2023/06/17 08:44:21;;;;;;;10.07;6.73;;;;;;;;;;5040113;28;58396;-67
2023/06/17 08:46:48;;;;;;;7.22;5.90;;;;;;;;;;5040335;28;58396;-66
2023/06/17 08:49:15;;;;;;;11.85;6.15;;;;;;;;;;5042197;28;58609;-67
2023/06/17 08:51:40;;;;;;;11.43;6.85;;;;;;;;;;5041724;28;58605;-68
2023/06/17 08:54:06;;;;;;;7.20;5.60;;;;;;;;;;5038921;28;58931;-67
2023/06/17 08:56:31;;;;;;;6.47;5.78;;;;;;;;;;5039878;28;58663;-65
2023/06/17 08:58:56;;;;;;;10.38;6.57;;;;;;;;;;5043721;28;59499;-68
2023/06/17 09:01:22;;;;;;;6.00;5.47;;;;;;;;;;5041436;28;59164;-66
2023/06/17 09:03:50;;;;;;;6.40;5.20;;;;;;;;;;5040250;28;58905;-67
2023/06/17 09:06:20;;;;;;;5.82;4.43;;;;;;;;;;5041444;28;58752;-67
2023/06/17 09:08:45;;;;;;;6.97;5.55;;;;;;;;;;5039664;28;58401;-66
2023/06/17 09:11:10;;;;;;;5.47;4.85;;;;;;;;;;5043811;28;58443;-65
2023/06/17 09:13:36;;;;;;;5.35;4.38;;;;;;;;;;5042093;28;58388;-67
2023/06/17 09:16:01;;;;;;;4.40;4.00;;;;;;;;;;5036563;28;59581;-67
2023/06/17 09:18:26;;;;;;;4.50;4.20;;;;;;;;;;5048783;28;58699;-68
2023/06/17 09:20:52;;;;;;;6.43;5.77;;;;;;;;;;5042903;28;58376;-67
2023/06/17 09:23:17;;;;;;;7.28;5.15;;;;;;;;;;5045708;28;58978;-66
2023/06/17 09:25:42;;;;;;;8.25;5.50;;;;;;;;;;5043895;28;58882;-68
2023/06/17 09:28:08;;;;;;;5.32;4.20;;;;;;;;;;5044141;28;58835;-67
2023/06/17 09:30:35;;;;;;;6.43;4.53;;;;;;;;;;5043713;28;58393;-67
2023/06/17 09:33:01;;;;;;;4.47;4.07;;;;;;;;;;5045529;28;59112;-68
2023/06/17 09:35:26;;;;;;;4.55;4.15;;;;;;;;;;5044132;28;58584;-67
2023/06/17 09:37:53;;;;;;;4.82;4.43;;;;;;;;;;5045938;28;58829;-67
2023/06/17 09:40:18;;;;;;;5.05;4.03;;;;;;;;;;5043247;28;60053;-67
2023/06/17 09:42:44;;;;;;;4.07;3.72;;;;;;;;;;5044792;28;58376;-67
2023/06/17 09:45:11;;;;;;;4.28;3.85;;;;;;;;;;5041140;28;59707;-67
2023/06/17 09:47:39;;;;;;;5.05;4.45;;;;;;;;;;5047581;28;58536;-67
2023/06/17 09:50:04;;;;;;;;;;;;;;;;;;5046204;28;58426;-64
2023/06/17 09:52:30;;;;;;;4.10;3.70;;;;;;;;;;5043625;28;58388;-64
2023/06/17 09:54:57;;;;;;;4.07;3.78;;;;;;;;;;5044232;28;58613;-64
2023/06/17 09:57:23;;;;;;;7.45;4.70;;;;;;;;;;5047450;28;58829;-64
2023/06/17 09:59:50;;;;;;;4.88;4.40;;;;;;;;;;5044410;28;59064;-63
2023/06/17 10:02:15;;;;;;;4.78;4.38;;;;;;;;;;5043394;28;58378;-64
2023/06/17 10:04:42;;;;;;;7.50;4.75;;;;;;;;;;5044449;28;58291;-64
2023/06/17 10:07:07;;;;;;;7.33;4.53;;;;;;;;;;5043816;28;58441;-64
2023/06/17 10:09:33;;;;;;;3.60;3.30;;;;;;;;;;5041503;28;58929;-63
2023/06/17 10:11:59;;;;;;;5.32;3.97;;;;;;;;;;5045271;28;58682;-63
2023/06/17 10:14:31;;;;;;;4.03;3.72;;;;;;;;;;5041152;28;58752;-64
2023/06/17 10:16:56;;;;;;;4.38;3.92;;;;;;;;;;5046749;28;58210;-62
2023/06/17 10:19:25;;;;;;;4.65;4.15;;;;;;;;;;5042108;28;58884;-64
2023/06/17 10:21:51;;;;;;;4.72;3.63;;;;;;;;;;5043199;28;58723;-64
2023/06/17 10:24:17;;;;;;;3.05;2.75;;;;;;;;;;5045020;28;58689;-63
2023/06/17 10:26:42;;;;;;;4.13;3.83;;;;;;;;;;5047391;28;58498;-64
2023/06/17 10:29:10;;;;;;;5.67;4.57;;;;;;;;;;5041899;28;58542;-64
2023/06/17 10:31:44;;;;;;;3.92;3.58;;;;;;;;;;5045199;28;60075;-64
2023/06/17 10:34:27;;;;;;;3.90;3.25;;;;;;;;;;5043901;28;59378;-64
2023/06/17 10:37:00;;;;;;;3.90;3.58;;;;;;;;;;5038155;28;58693;-64
2023/06/17 10:39:26;;;;;;;4.45;4.00;;;;;;;;;;5027828;28;58429;-62
2023/06/17 10:41:51;;;;;;;4.87;4.10;;;;;;;;;;5028236;28;58404;-63
2023/06/17 10:44:19;;;;;;;3.80;3.40;;;;;;;;;;5029251;28;58225;-63
2023/06/17 10:46:46;;;;;;;4.40;3.78;;;;;;;;;;5025974;28;58430;-64
2023/06/17 10:49:13;;;;;;;4.50;3.92;;;;;;;;;;5027234;28;58342;-63
2023/06/17 10:51:44;;;;;;;5.97;4.23;;;;;;;;;;5029200;28;58354;-68
2023/06/17 10:54:09;;;;;;;3.97;3.65;;;;;;;;;;5025880;28;58459;-68
2023/06/17 10:56:45;;;;;;;4.20;3.80;;;;;;;;;;5028241;28;58381;-68
2023/06/17 10:59:10;;;;;;;3.85;3.42;;;;;;;;;;5027961;28;59226;-67
2023/06/17 11:01:39;;;;;;;4.03;3.72;;;;;;;;;;5026760;28;58671;-67
2023/06/17 11:04:07;;;;;;;4.40;4.00;;;;;;;;;;5025386;28;59358;-67
2023/06/17 11:06:32;;;;;;;3.53;3.10;;;;;;;;;;5027861;28;59090;-67
2023/06/17 11:08:57;;;;;;;3.80;3.33;;;;;;;;;;5026749;28;58428;-67
2023/06/17 11:11:22;;;;;;;3.80;3.42;;;;;;;;;;5029026;28;58381;-68
2023/06/17 11:13:47;;;;;;;3.55;3.25;;;;;;;;;;5027527;28;58575;-67
2023/06/17 11:16:13;;;;;;;3.00;2.80;;;;;;;;;;5028432;28;58564;-68
2023/06/17 11:18:39;;;;;;;4.23;3.83;;;;;;;;;;5027560;28;58380;-67
2023/06/17 11:21:04;;;;;;;4.13;3.83;;;;;;;;;;5025580;28;58895;-66
2023/06/17 11:23:30;;;;;;;4.32;3.88;;;;;;;;;;5027939;28;58824;-67
2023/06/17 11:25:55;;;;;;;5.22;4.22;;;;;;;;;;5024545;28;58677;-62
2023/06/17 11:28:21;;;;;;;4.35;3.95;;;;;;;;;;5026775;28;58798;-67
2023/06/17 11:30:47;;;;;;;4.32;3.80;;;;;;;;;;5029879;28;58387;-68
2023/06/17 11:33:13;;;;;;;4.13;3.72;;;;;;;;;;5026392;28;58518;-67
2023/06/17 11:35:38;;;;;;;5.27;4.00;;;;;;;;;;5028743;28;58560;-64
2023/06/17 11:38:03;;;;;;;5.87;4.13;;;;;;;;;;5028749;28;58336;-67
2023/06/17 11:40:29;;;;;;;4.88;3.92;;;;;;;;;;5027659;28;58808;-66
2023/06/17 11:42:56;;;;;;;4.20;3.80;;;;;;;;;;5028186;28;58420;-67
2023/06/17 11:45:21;;;;;;;3.63;3.42;;;;;;;;;;5028516;28;57916;-65
2023/06/17 11:47:46;;;;;;;4.50;3.37;;;;;;;;;;5027780;28;58419;-66
2023/06/17 11:50:11;;;;;;;3.77;3.47;;;;;;;;;;5029383;28;58323;-65
2023/06/17 11:52:36;;;;;;;4.27;3.97;;;;;;;;;;5027631;28;58487;-67
2023/06/17 11:55:02;;;;;;;7.90;4.00;;;;;;;;;;5028709;28;58364;-66
2023/06/17 11:57:28;;;;;;;3.92;3.58;;;;;;;;;;5024319;28;59099;-67
2023/06/17 11:59:58;;;;;;;4.10;3.70;;;;;;;;;;5024560;28;58240;-66
2023/06/17 12:02:26;;;;;;;3.75;3.15;;;;;;;;;;5027141;28;58080;-66
2023/06/17 12:04:51;;;;;;;3.25;3.05;;;;;;;;;;5024794;28;58245;-66
2023/06/17 12:07:16;;;;;;;3.63;3.33;;;;;;;;;;5027769;28;59449;-65
2023/06/17 12:09:51;;;;;;;3.97;3.67;;;;;;;;;;5028186;28;58451;-67
2023/06/17 12:12:30;;;;;;;4.05;3.10;;;;;;;;;;5028371;28;58649;-67
2023/06/17 12:15:00;;;;;;;3.45;3.15;;;;;;;;;;5025555;28;58313;-66
2023/06/17 12:17:25;;;;;;;3.95;3.50;;;;;;;;;;5027137;28;62246;-66
2023/06/17 12:19:50;;;;;;;4.20;3.15;;;;;;;;;;5023039;28;59750;-67
2023/06/17 12:22:15;;;;;;;3.40;3.20;;;;;;;;;;5029952;28;58382;-66
2023/06/17 12:24:41;;;;;;;3.97;3.13;;;;;;;;;;5041870;28;58081;-67
2023/06/17 12:27:08;;;;;;;3.90;3.60;;;;;;;;;;5040324;28;58469;-67
2023/06/17 12:29:33;;;;;;;3.97;3.20;;;;;;;;;;5044964;28;58214;-67
2023/06/17 12:31:59;;;;;;;4.18;3.78;;;;;;;;;;5039999;28;58485;-68
2023/06/17 12:34:24;;;;;;;5.68;3.88;;;;;;;;;;5028348;28;58403;-67
2023/06/17 12:36:49;;;;;;;4.38;3.97;;;;;;;;;;5031732;28;58069;-68
2023/06/17 12:39:15;;;;;;;4.17;3.77;;;;;;;;;;5040026;28;58811;-71
2023/06/17 12:41:40;;;;;;;4.90;3.73;;;;;;;;;;5043288;28;58616;-67
2023/06/17 12:44:05;;;;;;;6.73;3.77;;;;;;;;;;5043598;28;57942;-71
2023/06/17 12:46:32;;;;;;;4.05;3.67;;;;;;;;;;5037717;28;58300;-65
2023/06/17 12:48:57;;;;;;;3.85;3.53;;;;;;;;;;5031961;28;58599;-63
2023/06/17 12:51:22;;;;;;;5.47;3.47;;;;;;;;;;5033796;28;58506;-63
2023/06/17 12:53:47;;;;;;;5.77;3.60;;;;;;;;;;5036610;28;58404;-61
2023/06/17 12:56:12;;;;;;;4.50;3.85;;;;;;;;;;5036673;28;58390;-64
2023/06/17 12:58:37;;;;;;;5.27;3.40;;;;;;;;;;5035570;28;58349;-60
2023/06/17 13:01:03;;;;;;;4.03;3.73;;;;;;;;;;5037069;28;58752;-63
2023/06/17 13:03:28;;;;;;;4.73;3.50;;;;;;;;;;5035679;28;58924;-62
2023/06/17 13:05:53;;;;;;;4.80;3.77;;;;;;;;;;5034095;28;58551;-63
2023/06/17 13:08:18;;;;;;;4.90;3.00;;;;;;;;;;5028251;28;58766;-66
2023/06/17 13:10:43;;;;;;;3.70;3.40;;;;;;;;;;5031304;28;59079;-60
2023/06/17 13:13:09;;;;;;;6.72;3.58;;;;;;;;;;5028265;28;59239;-67
2023/06/17 13:15:34;;;;;;;3.53;3.23;;;;;;;;;;5031091;28;59329;-60
2023/06/17 13:17:59;;;;;;;4.20;3.47;;;;;;;;;;5026522;28;59096;-64
2023/06/17 13:20:24;;;;;;;5.22;3.67;;;;;;;;;;5033297;28;58149;-62
2023/06/17 13:22:49;;;;;;;3.20;2.80;;;;;;;;;;5037007;28;58322;-62
2023/06/17 13:25:16;;;;;;;3.30;3.00;;;;;;;;;;5035088;28;59298;-66
2023/06/17 13:27:41;;;;;;;4.57;3.05;;;;;;;;;;5029131;28;58661;-64
2023/06/17 13:30:06;;;;;;;4.07;3.67;;;;;;;;;;5030486;28;58729;-67
2023/06/17 13:32:31;;;;;;;4.20;2.80;;;;;;;;;;5030319;28;59957;-59
2023/06/17 13:34:57;;;;;;;6.78;2.97;;;;;;;;;;5028840;28;59004;-66
2023/06/17 13:37:22;;;;;;;4.13;3.73;;;;;;;;;;5029654;28;58987;-66
2023/06/17 13:39:47;;;;;;;5.43;3.33;;;;;;;;;;5029285;28;58311;-66
2023/06/17 13:42:12;;;;;;;3.50;3.20;;;;;;;;;;5028990;28;58692;-61
2023/06/17 13:44:38;;;;;;;5.43;3.10;;;;;;;;;;5030256;28;58508;-63
2023/06/17 13:47:04;;;;;;;4.30;2.80;;;;;;;;;;5030328;28;58463;-62
2023/06/17 13:49:30;;;;;;;3.05;2.72;;;;;;;;;;5027316;28;58402;-63
2023/06/17 13:51:55;;;;;;;3.55;2.92;;;;;;;;;;5027490;28;58613;-63
2023/06/17 13:54:20;;;;;;;6.60;2.83;;;;;;;;;;5029306;28;58835;-68
2023/06/17 13:56:46;;;;;;;4.20;3.17;;;;;;;;;;5029773;28;58505;-65
2023/06/17 13:59:12;;;;;;;3.92;2.72;;;;;;;;;;5029407;28;58454;-65
2023/06/17 14:01:37;;;;;;;3.90;3.15;;;;;;;;;;5028659;28;58874;-60
2023/06/17 14:04:03;;;;;;;3.15;2.85;;;;;;;;;;5027787;28;59107;-68
2023/06/17 14:06:31;;;;;;;2.67;2.35;;;;;;;;;;5029277;28;58786;-63
2023/06/17 14:08:56;;;;;;;;;;;;;;;;;;5032085;28;58464;-62
2023/06/17 14:11:22;;;;;;;3.10;2.80;;;;;;;;;;5028080;28;58571;-66
2023/06/17 14:13:47;;;;;;;3.25;2.95;;;;;;;;;;5027503;28;58636;-67
2023/06/17 14:16:12;;;;;;;4.03;3.63;;;;;;;;;;5028481;28;59974;-61
2023/06/17 14:18:37;;;;;;;2.90;2.63;;;;;;;;;;5027645;28;59133;-61
2023/06/17 14:21:02;;;;;;;3.03;2.70;;;;;;;;;;5032248;28;58897;-64
2023/06/17 14:23:28;;;;;;;2.90;2.70;;;;;;;;;;5029677;28;58428;-64
2023/06/17 14:25:53;;;;;;;2.40;2.20;;;;;;;;;;5029456;28;58346;-66
2023/06/17 14:28:18;;;;;;;3.30;2.60;;;;;;;;;;5029742;28;59145;-66
2023/06/17 14:30:44;;;;;;;3.05;2.60;;;;;;;;;;5027381;28;57887;-66
2023/06/17 14:33:09;;;;;;;3.40;2.47;;;;;;;;;;5027906;28;58432;-68
2023/06/17 14:35:34;;;;;;;3.47;2.83;;;;;;;;;;5029350;28;59125;-65